Latest Weather Observations for Badgerys Creek

IDN60901

Issued at 5:21 pm EST Saturday 2 July 2016 (issued every 10 minutes, with the page automatically refreshed every 10 minutes)

About weather observations | Map of Sydney area stations | Latest observations for Sydney area | Other Formats
Station Details ID: 067108 Name: BADGERYS CREEK AWS Lat: -33.90 Lon: 150.73 Height: 81.2 m
Data from the previous 72 hours. | See also: Recent months at Badgerys Creek
Date/Time
EST
Temp
°C
App
Temp
°C
Dew
Point
°C
Rel
Hum
%
Delta-T
°C
Wind Press
QNH
hPa
Press
MSL
hPa
Rain since
9am
mm
Dir  Spd
km/h
Gust
km/h
Spd
kts
Gust
kts
02/05:00pm 13.2 9.2 4.9 57 3.8 SW 15 24 8 13 1024.2 1024.3 0.0
02/04:30pm 14.5 10.5 5.0 53 4.5 SW 15 22 8 12 1023.8 1023.9 0.0
02/04:00pm 15.5 10.7 4.8 49 5.0 SW 19 24 10 13 1023.5 1023.6 0.0
02/03:30pm 16.6 12.7 5.3 47 5.4 WSW 15 20 8 11 1023.2 1023.3 0.0
02/03:00pm 16.6 13.0 4.9 46 5.5 SW 13 22 7 12 1023.3 1023.4 0.0
02/02:30pm 16.9 13.3 5.2 46 5.6 W 13 22 7 12 1023.3 1023.4 0.0
02/02:00pm 16.4 12.8 4.8 46 5.5 SW 13 19 7 10 1023.5 1023.6 0.0
02/01:30pm 16.4 12.3 4.1 44 5.8 WSW 15 20 8 11 1023.7 1023.8 0.0
02/01:00pm 16.6 12.9 4.6 45 5.7 W 13 20 7 11 1023.7 1023.8 0.0
02/12:30pm 16.5 13.7 5.2 47 5.4 WSW 9 17 5 9 1024.0 1024.1 0.0
02/12:00pm 15.9 12.3 4.9 48 5.2 W 13 20 7 11 1024.4 1024.5 0.0
02/11:30am 15.1 10.7 4.5 49 5.0 WSW 17 22 9 12 1025.0 1025.1 0.0
02/11:00am 14.7 9.9 4.4 50 4.8 W 19 24 10 13 1025.3 1025.4 0.0
02/10:30am 14.0 9.6 4.6 53 4.4 WSW 17 22 9 12 1025.6 1025.7 0.0
02/10:00am 12.9 10.7 6.0 63 3.3 WSW 7 11 4 6 1025.7 1025.8 0.0
02/09:30am 10.9 9.7 6.3 73 2.2 SW 2 6 1 3 1025.7 1025.8 0.0
02/09:00am 9.2 8.5 6.8 85 1.1 CALM 0 2 0 1 1025.6 1025.7 0.0
02/08:30am 6.2 4.7 5.2 93 0.4 WSW 2 6 1 3 1025.5 1025.6 0.0
02/08:00am 3.7 1.4 3.0 95 0.3 W 4 6 2 3 1025.0 1025.1 0.0
02/07:30am 2.9 0.9 2.5 97 0.2 W 2 6 1 3 1024.7 1024.8 0.0
02/07:00am 3.2 0.5 2.6 96 0.2 W 6 7 3 4 1024.3 1024.4 0.0
02/06:30am 2.2 -0.7 1.3 94 0.3 W 6 7 3 4 1024.1 1024.2 0.0
02/06:00am 4.2 2.0 3.3 94 0.4 WSW 4 4 2 2 1023.6 1023.7 0.0
02/05:30am 4.2 1.9 2.7 90 0.6 W 4 7 2 4 1023.6 1023.7 0.0
02/05:00am 4.0 1.1 2.5 90 0.6 W 7 9 4 5 1023.6 1023.7 0.0
02/04:30am 5.4 3.0 2.4 81 1.2 W 4 6 2 3 1023.3 1023.4 0.0
02/04:00am 7.7 4.9 3.4 74 1.8 WSW 7 13 4 7 1022.9 1023.0 0.0
02/03:30am 7.9 5.3 3.4 73 1.9 SW 6 17 3 9 1022.9 1023.0 0.0
02/03:00am 8.1 5.5 3.2 71 2.1 SW 6 11 3 6 1023.0 1023.1 0.0
02/02:30am 8.0 4.8 3.3 72 2.0 SW 9 15 5 8 1022.9 1023.0 0.0
02/02:00am 8.2 4.8 4.0 75 1.8 SW 11 17 6 9 1022.9 1023.0 0.0
02/01:30am 7.0 3.7 2.7 74 1.8 SW 9 11 5 6 1022.8 1022.9 0.0
02/01:00am 6.8 3.6 3.2 78 1.5 SW 9 13 5 7 1022.7 1022.8 0.0
02/12:30am 5.9 2.5 4.1 88 0.8 SW 11 15 6 8 1022.8 1022.9 0.0
02/12:00am 4.6 1.7 2.5 86 0.8 SW 7 9 4 5 1022.7 1022.8 0.0
 
Date/Time
EST
Temp
°C
App
Temp
°C
Dew
Point
°C
Rel
Hum
%
Delta-T
°C
Wind Press
QNH
hPa
Press
MSL
hPa
Rain since
9am
mm
Dir  Spd
km/h
Gust
km/h
Spd
kts
Gust
kts
01/11:30pm 5.5 3.9 2.5 81 1.2 CALM 0 2 0 1 1022.8 1022.9 0.0
01/11:00pm 7.0 4.9 4.1 82 1.2 SW 4 6 2 3 1022.7 1022.8 0.0
01/10:30pm 5.3 2.7 3.2 86 0.9 SW 6 9 3 5 1022.4 1022.5 0.0
01/10:00pm 6.2 3.5 2.8 79 1.4 WSW 6 7 3 4 1022.2 1022.3 0.0
01/09:30pm 6.7 4.1 3.1 78 1.5 SW 6 7 3 4 1022.2 1022.3 0.0
01/09:00pm 7.3 5.2 3.7 78 1.5 SSW 4 7 2 4 1022.0 1022.1 0.0
01/08:30pm 7.0 4.4 3.1 76 1.6 SSW 6 7 3 4 1021.8 1021.9 0.0
01/08:00pm 7.9 5.7 3.2 72 2.0 SW 4 4 2 2 1021.5 1021.6 0.0
01/07:30pm 9.1 6.9 3.5 68 2.4 SW 4 9 2 5 1021.0 1021.1 0.0
01/07:00pm 9.7 7.1 3.4 65 2.7 WSW 6 7 3 4 1020.6 1020.7 0.0
01/06:30pm 9.6 6.1 3.6 66 2.6 WSW 11 15 6 8 1020.1 1020.2 0.0
01/06:00pm 10.6 6.7 3.4 61 3.2 WSW 13 20 7 11 1019.6 1019.7 0.0
01/05:30pm 11.0 7.1 3.5 60 3.3 WSW 13 20 7 11 1018.9 1019.0 0.0
01/05:00pm 12.5 8.2 3.2 53 4.1 WSW 15 19 8 10 1018.4 1018.4 0.0
01/04:30pm 13.9 8.8 3.1 48 4.8 WSW 19 26 10 14 1017.7 1017.7 0.0
01/04:00pm 15.0 10.3 3.2 45 5.3 WSW 17 20 9 11 1017.2 1017.3 0.0
01/03:30pm 15.3 10.0 2.8 43 5.6 WSW 20 32 11 17 1016.8 1016.9 0.0
01/03:00pm 15.8 10.7 2.9 42 5.9 WSW 19 30 10 16 1016.5 1016.6 0.0
01/02:30pm 15.5 9.8 3.0 43 5.7 SW 22 32 12 17 1016.3 1016.4 0.0
01/02:00pm 15.5 8.9 2.3 41 5.9 WSW 26 37 14 20 1015.9 1016.0 0.0
01/01:30pm 15.6 9.6 3.4 44 5.6 WSW 24 33 13 18 1015.9 1016.0 0.0
01/01:00pm 15.3 8.6 3.5 45 5.4 SW 28 41 15 22 1015.8 1015.9 0.0
01/12:43pm 15.0 7.5 3.5 46 5.3 SW 32 52 17 28 1015.8 1015.9 0.0
01/12:30pm 14.7 7.2 3.2 46 5.2 SW 32 48 17 26 1016.0 1016.1 0.0
01/12:13pm 15.0 8.2 3.2 45 5.4 SW 28 46 15 25 1015.9 1016.0 0.0
01/12:00pm 15.2 8.8 3.0 44 5.5 WSW 26 41 14 22 1015.9 1016.0 0.0
01/11:30am 14.5 8.5 3.3 47 5.1 WSW 24 37 13 20 1015.9 1016.0 0.0
01/11:00am 14.6 9.6 3.7 48 5.0 WSW 19 32 10 17 1015.9 1016.0 0.0
01/10:30am 13.1 9.8 2.6 49 4.6 W 9 15 5 8 1016.1 1016.2 0.0
01/10:00am 12.8 10.1 2.6 50 4.5 WNW 6 9 3 5 1015.9 1016.0 0.0
01/09:30am 11.7 9.4 2.7 54 3.9 NW 4 9 2 5 1015.8 1015.9 0.0
01/09:00am 11.3 9.9 3.6 59 3.4 CALM 0 0 0 0 1015.7 1015.8 0.0
01/08:30am 7.4 5.6 5.5 88 0.9 N 4 7 2 4 1015.5 1015.6 0.0
01/08:00am 5.0 2.9 3.7 91 0.5 N 4 7 2 4 1015.6 1015.7 0.0
01/07:30am 5.4 3.4 4.4 93 0.4 N 4 9 2 5 1014.9 1015.0 0.0
01/07:00am 3.7 1.4 2.8 94 0.4 S 4 6 2 3 1014.6 1014.7 0.0
01/06:30am 3.3 0.3 2.1 92 0.5 SSW 7 13 4 7 1014.6 1014.7 0.0
01/06:00am 5.0 2.7 2.9 86 0.9 SW 4 7 2 4 1014.0 1014.1 0.0
01/05:30am 7.4 5.3 4.0 79 1.5 WNW 4 6 2 3 1013.5 1013.6 0.0
01/05:00am 8.1 4.7 4.1 76 1.7 WNW 11 17 6 9 1013.3 1013.4 0.0
01/04:30am 6.1 3.4 3.8 85 1.0 WSW 7 11 4 6 1013.3 1013.4 0.0
01/04:00am 7.0 4.6 4.3 83 1.2 SSE 6 7 3 4 1013.4 1013.5 0.0
01/03:30am 8.3 4.3 5.1 80 1.4 S 15 28 8 15 1013.8 1013.9 0.0
01/03:00am 7.5 3.8 4.5 81 1.3 N 13 17 7 9 1012.9 1013.0 0.0
01/02:30am 7.9 4.6 4.8 81 1.4 N 11 17 6 9 1013.0 1013.1 0.0
01/02:00am 7.5 3.7 3.9 78 1.6 NW 13 15 7 8 1013.1 1013.2 0.0
01/01:30am 10.1 4.8 5.1 71 2.3 N 22 32 12 17 1012.5 1012.6 0.0
01/01:00am 9.2 4.8 4.8 74 2.0 N 17 28 9 15 1013.1 1013.2 0.0
01/12:30am 7.5 4.0 3.4 75 1.7 N 11 19 6 10 1013.3 1013.4 0.0
01/12:00am 8.9 4.6 3.3 68 2.4 N 15 20 8 11 1014.2 1014.3 0.0
 
Date/Time
EST
Temp
°C
App
Temp
°C
Dew
Point
°C
Rel
Hum
%
Delta-T
°C
Wind Press
QNH
hPa
Press
MSL
hPa
Rain since
9am
mm
Dir  Spd
km/h
Gust
km/h
Spd
kts
Gust
kts
30/11:30pm 8.2 4.9 2.7 68 2.3 N 9 15 5 8 1014.4 1014.5 0.0
30/11:00pm 6.9 4.1 3.0 76 1.6 N 7 11 4 6 1014.5 1014.6 0.0
30/10:30pm 7.5 4.8 2.6 71 2.1 N 6 7 3 4 1015.0 1015.1 0.0
30/10:00pm 9.3 5.2 2.2 61 3.0 NNW 13 17 7 9 1015.2 1015.3 0.0
30/09:30pm 9.5 5.9 3.0 64 2.8 NW 11 17 6 9 1015.5 1015.6 0.0
30/09:00pm 9.3 5.7 3.1 65 2.7 N 11 17 6 9 1015.5 1015.6 0.0
30/08:30pm 9.4 5.0 2.9 64 2.8 NNW 15 20 8 11 1015.5 1015.6 0.0
30/08:00pm 9.3 4.9 2.6 63 2.8 NNW 15 17 8 9 1015.6 1015.7 0.0
30/07:30pm 9.6 5.2 2.7 62 3.0 NW 15 19 8 10 1015.5 1015.6 0.0
30/07:00pm 9.3 5.3 2.6 63 2.8 NNW 13 15 7 8 1015.6 1015.7 0.0
30/06:30pm 10.7 7.0 2.3 56 3.6 N 11 15 6 8 1015.4 1015.5 0.0
30/06:00pm 12.1 9.1 2.0 50 4.4 N 7 9 4 5 1015.1 1015.2 0.0
30/05:30pm 12.5 8.3 1.8 48 4.6 NW 13 20 7 11 1014.9 1015.0 0.0
30/05:00pm 12.4 9.2 2.8 52 4.2 W 9 11 5 6 1014.9 1015.0 0.0
30/04:30pm 13.0 10.9 3.7 53 4.2 N 4 7 2 4 1014.8 1014.9 0.0
30/04:00pm 11.4 9.3 3.9 60 3.4 W 4 6 2 3 1014.7 1014.8 0.0
30/03:30pm 10.4 9.4 5.6 72 2.2 CALM 0 2 0 1 1014.8 1014.9 0.0
30/03:00pm 11.1 8.8 4.8 65 2.9 W 6 7 3 4 1014.9 1015.0 0.0
30/02:30pm 11.6 9.9 5.7 67 2.8 N 4 7 2 4 1015.1 1015.2 0.0
30/02:00pm 11.8 9.9 5.0 63 3.1 N 4 6 2 3 1015.6 1015.7 0.0
30/01:30pm 11.8 9.6 5.2 64 3.0 N 6 7 3 4 1015.9 1016.0 0.0
30/01:00pm 11.6 9.8 5.3 65 2.9 N 4 6 2 3 1016.6 1016.7 0.0
30/12:30pm 10.6 9.2 5.4 70 2.4 N 2 4 1 2 1017.5 1017.5 0.0
30/12:00pm 9.7 8.2 5.1 73 2.1 N 2 6 1 3 1018.2 1018.2 0.0
30/11:30am 9.2 6.7 4.6 73 2.1 N 7 9 4 5 1019.1 1019.1 0.0
30/11:00am 10.5 8.1 4.2 65 2.8 NE 6 9 3 5 1019.6 1019.6 0.0
30/10:30am 9.4 7.6 5.6 77 1.7 NE 4 7 2 4 1020.2 1020.2 0.0
30/10:00am 7.7 6.0 5.8 88 0.9 NE 4 7 2 4 1020.6 1020.6 0.0
30/09:30am 5.6 3.8 5.6 100 0.0 NE 4 6 2 3 1020.9 1020.9 0.0
30/09:00am 4.3 2.7 4.3 100 0.0 NE 2 4 1 2 1021.1 1021.1 0.0
30/08:30am 2.8 1.3 2.8 100 0.0 CALM 0 0 0 0 1021.1 1021.1 0.0
30/08:00am -0.3 -2.3 -0.3 100 0.0 CALM 0 0 0 0 1021.2 1021.2 0.0
30/07:30am -0.8 -3.3 -0.9 99 0.0 NE 2 4 1 2 1021.2 1021.2 0.0
30/07:00am -1.3 -3.5 -1.4 99 0.0 CALM 0 0 0 0 1021.1 1021.1 0.0
30/06:30am -0.7 -3.6 -0.8 99 0.0 NE 4 4 2 2 1021.1 1021.1 0.0
30/06:00am -0.3 -3.1 -0.4 99 0.0 NE 4 6 2 3 1021.4 1021.4 0.0
30/05:30am -0.2 -3.0 -0.3 99 0.0 NE 4 6 2 3 1021.4 1021.4 0.0
30/05:00am 0.3 -2.8 0.2 99 0.0 NE 6 6 3 3 1021.5 1021.5 0.0
30/04:30am 0.4 -2.7 0.3 99 0.0 NE 6 6 3 3 1021.5 1021.5 0.0
30/04:00am 0.6 -1.7 0.5 99 0.0 NE 2 4 1 2 1021.9 1021.9 0.0
30/03:30am 1.6 -0.9 1.5 99 0.0 NE 4 4 2 2 1022.3 1022.4 0.0
30/03:00am 1.6 -0.9 1.5 99 0.0 NE 4 4 2 2 1022.5 1022.6 0.0
30/02:30am 1.5 -1.4 1.4 99 0.0 NE 6 6 3 3 1022.9 1023.0 0.0
30/02:00am 1.7 0.0 1.6 99 0.0 CALM 0 0 0 0 1023.4 1023.5 0.0
30/01:30am 2.7 1.1 2.6 99 0.0 CALM 0 0 0 0 1023.6 1023.7 0.0
30/01:00am 3.2 1.7 3.1 99 0.0 CALM 0 0 0 0 1023.8 1023.9 0.0
30/12:30am 3.8 2.4 3.7 99 0.0 CALM 0 0 0 0 1024.0 1024.1 0.0
30/12:00am 3.4 0.8 3.3 99 0.0 NE 6 6 3 3 1024.2 1024.3 0.0
 
Date/Time
EST
Temp
°C
App
Temp
°C
Dew
Point
°C
Rel
Hum
%
Delta-T
°C
Wind Press
QNH
hPa
Press
MSL
hPa
Rain since
9am
mm
Dir  Spd
km/h
Gust
km/h
Spd
kts
Gust
kts
29/11:30pm 4.0 1.9 3.9 99 0.0 NE 4 6 2 3 1024.7 1024.8 0.0
29/11:00pm 4.0 1.5 3.9 99 0.0 NE 6 7 3 4 1025.0 1025.1 0.0
29/10:30pm 4.0 1.5 3.9 99 0.0 NE 6 6 3 3 1025.2 1025.3 0.0
29/10:00pm 4.7 2.2 4.0 95 0.3 NE 6 6 3 3 1025.3 1025.4 0.0
29/09:30pm 5.3 3.3 4.4 94 0.4 NE 4 6 2 3 1025.4 1025.5 0.0
29/09:00pm 5.6 3.6 4.4 92 0.5 NE 4 4 2 2 1025.5 1025.6 0.0
29/08:30pm 6.6 4.2 4.3 85 1.0 NE 6 7 3 4 1025.6 1025.7 0.0
29/08:00pm 6.2 4.9 3.9 85 1.0 CALM 0 0 0 0 1025.8 1025.9 0.0
29/07:30pm 7.7 6.1 4.3 79 1.5 NE 2 2 1 1 1025.7 1025.8 0.0
29/07:00pm 8.6 6.8 3.4 70 2.2 NE 2 4 1 2 1025.7 1025.8 0.0
29/06:30pm 9.4 7.6 3.2 65 2.7 NE 2 2 1 1 1025.6 1025.7 0.0
29/06:00pm 11.4 9.6 3.4 58 3.5 NE 2 4 1 2 1025.4 1025.5 0.0
29/05:30pm 13.1 11.0 3.7 53 4.2 NE 4 6 2 3 1025.3 1025.4 0.0

Latest Capital City Observations: Canberra | Sydney | Melbourne | Brisbane | Adelaide | Perth | Hobart | Darwin

Other Formats:

Comma delimited format used in spreadsheet applications
http://www.bom.gov.au/fwo/IDN60901/IDN60901.94752.axf

JavaScript Object Notation format (JSON) in row-major order
http://www.bom.gov.au/fwo/IDN60901/IDN60901.94752.json